sensor_id;sensor_type;location;lat;lon;timestamp;temperature;humidity
53776;DHT22;44276;49.534;6.378;2023-02-28T00:00:09;-1.60;35.30
53776;DHT22;44276;49.534;6.378;2023-02-28T00:02:41;-1.60;35.60
53776;DHT22;44276;49.534;6.378;2023-02-28T00:05:14;-1.60;35.40
53776;DHT22;44276;49.534;6.378;2023-02-28T00:07:45;-1.60;35.40
53776;DHT22;44276;49.534;6.378;2023-02-28T00:10:18;-1.60;35.50
53776;DHT22;44276;49.534;6.378;2023-02-28T00:12:51;-1.60;35.40
53776;DHT22;44276;49.534;6.378;2023-02-28T00:15:24;-1.60;35.30
53776;DHT22;44276;49.534;6.378;2023-02-28T00:18:07;-1.60;35.30
53776;DHT22;44276;49.534;6.378;2023-02-28T00:20:44;-1.70;36.00
53776;DHT22;44276;49.534;6.378;2023-02-28T00:23:13;-1.60;36.20
53776;DHT22;44276;49.534;6.378;2023-02-28T00:25:53;-1.60;36.00
53776;DHT22;44276;49.534;6.378;2023-02-28T00:28:22;-1.50;35.80
53776;DHT22;44276;49.534;6.378;2023-02-28T00:30:51;-1.50;35.70
53776;DHT22;44276;49.534;6.378;2023-02-28T00:33:21;-1.50;36.10
53776;DHT22;44276;49.534;6.378;2023-02-28T00:35:51;-1.50;36.50
53776;DHT22;44276;49.534;6.378;2023-02-28T00:38:20;-1.50;36.80
53776;DHT22;44276;49.534;6.378;2023-02-28T00:40:48;-1.50;37.40
53776;DHT22;44276;49.534;6.378;2023-02-28T00:43:17;-1.60;38.20
53776;DHT22;44276;49.534;6.378;2023-02-28T00:45:45;-1.70;38.00
53776;DHT22;44276;49.534;6.378;2023-02-28T00:48:22;-1.60;38.00
53776;DHT22;44276;49.534;6.378;2023-02-28T00:50:51;-1.60;38.40
53776;DHT22;44276;49.534;6.378;2023-02-28T00:53:19;-1.60;38.60
53776;DHT22;44276;49.534;6.378;2023-02-28T00:55:49;-1.60;39.00
53776;DHT22;44276;49.534;6.378;2023-02-28T00:58:17;-1.60;39.40
53776;DHT22;44276;49.534;6.378;2023-02-28T01:00:45;-1.70;40.40
53776;DHT22;44276;49.534;6.378;2023-02-28T01:03:16;-1.70;41.10
53776;DHT22;44276;49.534;6.378;2023-02-28T01:05:46;-1.80;42.60
53776;DHT22;44276;49.534;6.378;2023-02-28T01:08:16;-1.80;43.20
53776;DHT22;44276;49.534;6.378;2023-02-28T01:10:44;-1.80;44.50
53776;DHT22;44276;49.534;6.378;2023-02-28T01:13:13;-1.90;45.20
53776;DHT22;44276;49.534;6.378;2023-02-28T01:15:45;-1.80;46.50
53776;DHT22;44276;49.534;6.378;2023-02-28T01:18:16;-1.90;47.20
53776;DHT22;44276;49.534;6.378;2023-02-28T01:20:45;-1.90;48.30
53776;DHT22;44276;49.534;6.378;2023-02-28T01:23:13;-1.90;49.40
53776;DHT22;44276;49.534;6.378;2023-02-28T01:25:43;-2.00;50.80
53776;DHT22;44276;49.534;6.378;2023-02-28T01:28:11;-1.90;51.50
53776;DHT22;44276;49.534;6.378;2023-02-28T01:30:39;-1.90;51.80
53776;DHT22;44276;49.534;6.378;2023-02-28T01:33:07;-1.90;52.00
53776;DHT22;44276;49.534;6.378;2023-02-28T01:35:36;-2.00;52.70
53776;DHT22;44276;49.534;6.378;2023-02-28T01:38:04;-2.00;53.50
53776;DHT22;44276;49.534;6.378;2023-02-28T01:40:49;-2.00;53.90
53776;DHT22;44276;49.534;6.378;2023-02-28T01:43:21;-2.00;54.50
53776;DHT22;44276;49.534;6.378;2023-02-28T01:45:51;-2.10;56.10
53776;DHT22;44276;49.534;6.378;2023-02-28T01:48:23;-2.10;57.10
53776;DHT22;44276;49.534;6.378;2023-02-28T01:50:57;-2.10;58.20
53776;DHT22;44276;49.534;6.378;2023-02-28T01:53:32;-2.10;59.10
53776;DHT22;44276;49.534;6.378;2023-02-28T01:56:07;-2.10;60.10
53776;DHT22;44276;49.534;6.378;2023-02-28T01:58:39;-2.20;61.50
53776;DHT22;44276;49.534;6.378;2023-02-28T02:01:08;-2.20;62.70
53776;DHT22;44276;49.534;6.378;2023-02-28T02:03:36;-2.20;63.60
53776;DHT22;44276;49.534;6.378;2023-02-28T02:06:04;-2.20;65.00
53776;DHT22;44276;49.534;6.378;2023-02-28T02:08:33;-2.20;65.00
53776;DHT22;44276;49.534;6.378;2023-02-28T02:11:02;-2.30;66.00
53776;DHT22;44276;49.534;6.378;2023-02-28T02:13:57;-2.30;68.30
53776;DHT22;44276;49.534;6.378;2023-02-28T02:16:46;-2.30;70.80
53776;DHT22;44276;49.534;6.378;2023-02-28T02:19:43;-2.40;71.40
53776;DHT22;44276;49.534;6.378;2023-02-28T02:22:46;-2.40;72.30
53776;DHT22;44276;49.534;6.378;2023-02-28T02:25:34;-2.40;73.40
53776;DHT22;44276;49.534;6.378;2023-02-28T02:28:32;-2.40;73.80
53776;DHT22;44276;49.534;6.378;2023-02-28T02:31:29;-2.30;73.30
53776;DHT22;44276;49.534;6.378;2023-02-28T02:34:35;-2.20;72.10
53776;DHT22;44276;49.534;6.378;2023-02-28T02:37:20;-2.30;72.40
53776;DHT22;44276;49.534;6.378;2023-02-28T02:40:03;-2.30;74.30
53776;DHT22;44276;49.534;6.378;2023-02-28T02:42:43;-2.30;74.30
53776;DHT22;44276;49.534;6.378;2023-02-28T02:45:21;-2.30;75.10
53776;DHT22;44276;49.534;6.378;2023-02-28T02:47:55;-2.40;76.40
53776;DHT22;44276;49.534;6.378;2023-02-28T02:50:31;-2.40;77.40
53776;DHT22;44276;49.534;6.378;2023-02-28T02:53:05;-2.50;79.40
53776;DHT22;44276;49.534;6.378;2023-02-28T02:55:39;-2.50;82.50
53776;DHT22;44276;49.534;6.378;2023-02-28T02:58:13;-2.60;86.00
53776;DHT22;44276;49.534;6.378;2023-02-28T03:00:48;-2.60;88.20
53776;DHT22;44276;49.534;6.378;2023-02-28T03:03:21;-2.60;88.30
53776;DHT22;44276;49.534;6.378;2023-02-28T03:05:59;-2.60;88.70
53776;DHT22;44276;49.534;6.378;2023-02-28T03:08:29;-2.70;91.00
53776;DHT22;44276;49.534;6.378;2023-02-28T03:11:04;-2.70;92.30
53776;DHT22;44276;49.534;6.378;2023-02-28T03:17:16;-2.70;92.70
53776;DHT22;44276;49.534;6.378;2023-02-28T03:20:01;-2.80;94.20
53776;DHT22;44276;49.534;6.378;2023-02-28T03:22:45;-2.80;94.90
53776;DHT22;44276;49.534;6.378;2023-02-28T03:25:27;-2.70;95.00
53776;DHT22;44276;49.534;6.378;2023-02-28T03:28:05;-2.70;93.90
53776;DHT22;44276;49.534;6.378;2023-02-28T03:30:45;-2.60;92.80
53776;DHT22;44276;49.534;6.378;2023-02-28T03:33:21;-2.70;92.60
53776;DHT22;44276;49.534;6.378;2023-02-28T03:35:56;-2.70;93.20
53776;DHT22;44276;49.534;6.378;2023-02-28T03:38:33;-2.80;93.90
53776;DHT22;44276;49.534;6.378;2023-02-28T03:41:10;-2.80;94.50
53776;DHT22;44276;49.534;6.378;2023-02-28T03:43:46;-2.80;94.20
53776;DHT22;44276;49.534;6.378;2023-02-28T03:46:21;-2.80;93.50
53776;DHT22;44276;49.534;6.378;2023-02-28T03:48:56;-2.70;92.30
53776;DHT22;44276;49.534;6.378;2023-02-28T03:51:30;-2.70;91.90
53776;DHT22;44276;49.534;6.378;2023-02-28T03:54:06;-2.80;92.60
53776;DHT22;44276;49.534;6.378;2023-02-28T03:56:42;-2.90;95.60
53776;DHT22;44276;49.534;6.378;2023-02-28T03:59:18;-2.90;97.80
53776;DHT22;44276;49.534;6.378;2023-02-28T04:01:50;-2.90;99.20
53776;DHT22;44276;49.534;6.378;2023-02-28T04:04:20;-2.80;98.60
53776;DHT22;44276;49.534;6.378;2023-02-28T04:06:49;-2.80;97.80
53776;DHT22;44276;49.534;6.378;2023-02-28T04:09:20;-2.80;96.70
53776;DHT22;44276;49.534;6.378;2023-02-28T04:11:51;-2.70;95.90
53776;DHT22;44276;49.534;6.378;2023-02-28T04:14:21;-2.70;95.20
53776;DHT22;44276;49.534;6.378;2023-02-28T04:16:49;-2.70;94.70
53776;DHT22;44276;49.534;6.378;2023-02-28T04:19:19;-2.70;94.40
53776;DHT22;44276;49.534;6.378;2023-02-28T04:21:49;-2.70;94.70
53776;DHT22;44276;49.534;6.378;2023-02-28T04:24:21;-2.80;95.00
53776;DHT22;44276;49.534;6.378;2023-02-28T04:26:53;-2.80;95.50
53776;DHT22;44276;49.534;6.378;2023-02-28T04:29:24;-2.80;97.20
53776;DHT22;44276;49.534;6.378;2023-02-28T04:31:53;-2.80;97.10
53776;DHT22;44276;49.534;6.378;2023-02-28T04:34:24;-2.80;97.50
53776;DHT22;44276;49.534;6.378;2023-02-28T04:36:55;-2.80;98.00
53776;DHT22;44276;49.534;6.378;2023-02-28T04:39:42;-2.90;99.90
53776;DHT22;44276;49.534;6.378;2023-02-28T04:42:11;-3.00;99.90
53776;DHT22;44276;49.534;6.378;2023-02-28T04:44:39;-2.90;99.90
53776;DHT22;44276;49.534;6.378;2023-02-28T04:47:08;-2.80;99.90
53776;DHT22;44276;49.534;6.378;2023-02-28T04:49:36;-2.90;99.90
53776;DHT22;44276;49.534;6.378;2023-02-28T04:52:04;-3.00;99.90
53776;DHT22;44276;49.534;6.378;2023-02-28T04:54:34;-3.00;99.90
53776;DHT22;44276;49.534;6.378;2023-02-28T04:57:03;-3.00;99.90
53776;DHT22;44276;49.534;6.378;2023-02-28T04:59:31;-3.10;99.90
53776;DHT22;44276;49.534;6.378;2023-02-28T05:02:00;-3.00;99.90
53776;DHT22;44276;49.534;6.378;2023-02-28T05:04:34;-2.90;99.90
53776;DHT22;44276;49.534;6.378;2023-02-28T05:07:03;-2.90;99.90
53776;DHT22;44276;49.534;6.378;2023-02-28T05:09:31;-2.90;99.90
53776;DHT22;44276;49.534;6.378;2023-02-28T05:12:00;-3.00;99.90
53776;DHT22;44276;49.534;6.378;2023-02-28T05:14:30;-3.00;99.90
53776;DHT22;44276;49.534;6.378;2023-02-28T05:16:58;-2.90;99.90
53776;DHT22;44276;49.534;6.378;2023-02-28T05:19:26;-2.90;99.90
53776;DHT22;44276;49.534;6.378;2023-02-28T05:21:54;-2.90;99.90
53776;DHT22;44276;49.534;6.378;2023-02-28T05:24:23;-2.90;99.90
53776;DHT22;44276;49.534;6.378;2023-02-28T05:26:52;-2.80;99.90
53776;DHT22;44276;49.534;6.378;2023-02-28T05:29:21;-2.70;99.90
53776;DHT22;44276;49.534;6.378;2023-02-28T05:31:51;-2.70;99.90
53776;DHT22;44276;49.534;6.378;2023-02-28T05:34:19;-2.60;99.90
53776;DHT22;44276;49.534;6.378;2023-02-28T05:36:47;-2.60;99.90
53776;DHT22;44276;49.534;6.378;2023-02-28T05:39:16;-2.50;99.90
53776;DHT22;44276;49.534;6.378;2023-02-28T05:41:44;-2.40;99.90
53776;DHT22;44276;49.534;6.378;2023-02-28T05:44:12;-2.40;99.90
53776;DHT22;44276;49.534;6.378;2023-02-28T05:46:40;-2.40;99.90
53776;DHT22;44276;49.534;6.378;2023-02-28T05:49:09;-2.40;99.90
53776;DHT22;44276;49.534;6.378;2023-02-28T05:51:38;-2.40;99.90
53776;DHT22;44276;49.534;6.378;2023-02-28T05:54:07;-2.40;99.90
53776;DHT22;44276;49.534;6.378;2023-02-28T05:56:38;-2.30;99.90
53776;DHT22;44276;49.534;6.378;2023-02-28T05:59:07;-2.40;99.90
53776;DHT22;44276;49.534;6.378;2023-02-28T06:01:37;-2.40;99.90
53776;DHT22;44276;49.534;6.378;2023-02-28T06:04:08;-2.50;99.90
53776;DHT22;44276;49.534;6.378;2023-02-28T06:06:59;-2.50;99.90
53776;DHT22;44276;49.534;6.378;2023-02-28T06:09:28;-2.60;99.90
53776;DHT22;44276;49.534;6.378;2023-02-28T06:11:58;-2.70;99.90
53776;DHT22;44276;49.534;6.378;2023-02-28T06:14:27;-2.70;99.90
53776;DHT22;44276;49.534;6.378;2023-02-28T06:16:55;-2.60;99.90
53776;DHT22;44276;49.534;6.378;2023-02-28T06:19:26;-2.60;99.90
53776;DHT22;44276;49.534;6.378;2023-02-28T06:21:57;-2.60;99.90
53776;DHT22;44276;49.534;6.378;2023-02-28T06:24:26;-2.50;99.90
53776;DHT22;44276;49.534;6.378;2023-02-28T06:26:55;-2.50;99.90
53776;DHT22;44276;49.534;6.378;2023-02-28T06:29:25;-2.50;99.90
53776;DHT22;44276;49.534;6.378;2023-02-28T06:31:54;-2.30;99.90
53776;DHT22;44276;49.534;6.378;2023-02-28T06:34:22;-2.30;99.90
53776;DHT22;44276;49.534;6.378;2023-02-28T06:36:52;-2.30;99.90
53776;DHT22;44276;49.534;6.378;2023-02-28T06:39:21;-2.40;99.90
53776;DHT22;44276;49.534;6.378;2023-02-28T06:41:49;-2.40;99.90
53776;DHT22;44276;49.534;6.378;2023-02-28T06:44:23;-2.40;99.90
53776;DHT22;44276;49.534;6.378;2023-02-28T06:46:52;-2.40;99.90
53776;DHT22;44276;49.534;6.378;2023-02-28T06:49:20;-2.50;99.90
53776;DHT22;44276;49.534;6.378;2023-02-28T06:51:48;-2.50;99.90
53776;DHT22;44276;49.534;6.378;2023-02-28T06:54:18;-2.40;99.90
53776;DHT22;44276;49.534;6.378;2023-02-28T06:56:47;-2.30;99.90
53776;DHT22;44276;49.534;6.378;2023-02-28T06:59:16;-2.30;99.90
53776;DHT22;44276;49.534;6.378;2023-02-28T07:01:44;-2.30;99.90
53776;DHT22;44276;49.534;6.378;2023-02-28T07:04:14;-2.20;99.90
53776;DHT22;44276;49.534;6.378;2023-02-28T07:06:42;-2.20;99.90
53776;DHT22;44276;49.534;6.378;2023-02-28T07:09:10;-2.10;99.90
53776;DHT22;44276;49.534;6.378;2023-02-28T07:11:42;-1.90;99.90
53776;DHT22;44276;49.534;6.378;2023-02-28T07:14:10;-1.90;99.90
53776;DHT22;44276;49.534;6.378;2023-02-28T07:16:38;-1.80;99.90
53776;DHT22;44276;49.534;6.378;2023-02-28T07:19:07;-1.70;99.90
53776;DHT22;44276;49.534;6.378;2023-02-28T07:21:35;-1.60;99.90
53776;DHT22;44276;49.534;6.378;2023-02-28T07:24:04;-1.50;99.90
53776;DHT22;44276;49.534;6.378;2023-02-28T07:26:32;-1.40;99.90
53776;DHT22;44276;49.534;6.378;2023-02-28T07:29:03;-1.30;99.90
53776;DHT22;44276;49.534;6.378;2023-02-28T07:31:31;-1.20;99.90
53776;DHT22;44276;49.534;6.378;2023-02-28T07:34:00;-1.20;99.90
53776;DHT22;44276;49.534;6.378;2023-02-28T07:36:29;-1.10;99.90
53776;DHT22;44276;49.534;6.378;2023-02-28T07:38:58;-1.10;99.90
53776;DHT22;44276;49.534;6.378;2023-02-28T07:41:26;-1.00;99.90
53776;DHT22;44276;49.534;6.378;2023-02-28T07:43:57;-0.90;99.90
53776;DHT22;44276;49.534;6.378;2023-02-28T07:46:27;-0.90;99.90
53776;DHT22;44276;49.534;6.378;2023-02-28T07:49:02;-0.80;99.10
53776;DHT22;44276;49.534;6.378;2023-02-28T07:51:32;-0.80;96.40
53776;DHT22;44276;49.534;6.378;2023-02-28T07:54:00;-0.70;97.50
53776;DHT22;44276;49.534;6.378;2023-02-28T07:56:28;-0.70;97.10
53776;DHT22;44276;49.534;6.378;2023-02-28T07:58:57;-0.60;92.10
53776;DHT22;44276;49.534;6.378;2023-02-28T08:01:27;-0.50;89.70
53776;DHT22;44276;49.534;6.378;2023-02-28T08:03:55;-0.40;84.10
53776;DHT22;44276;49.534;6.378;2023-02-28T08:06:25;-0.20;80.60
53776;DHT22;44276;49.534;6.378;2023-02-28T08:08:53;0.70;62.00
53776;DHT22;44276;49.534;6.378;2023-02-28T08:11:22;1.70;48.00
53776;DHT22;44276;49.534;6.378;2023-02-28T08:13:50;2.40;40.90
53776;DHT22;44276;49.534;6.378;2023-02-28T08:16:19;3.00;36.20
53776;DHT22;44276;49.534;6.378;2023-02-28T08:18:51;3.50;33.80
53776;DHT22;44276;49.534;6.378;2023-02-28T08:21:20;4.20;30.00
53776;DHT22;44276;49.534;6.378;2023-02-28T08:23:50;4.40;28.80
53776;DHT22;44276;49.534;6.378;2023-02-28T08:26:19;4.50;28.70
53776;DHT22;44276;49.534;6.378;2023-02-28T08:28:48;4.40;27.30
53776;DHT22;44276;49.534;6.378;2023-02-28T08:31:17;4.60;27.00
53776;DHT22;44276;49.534;6.378;2023-02-28T08:33:46;4.70;26.20
53776;DHT22;44276;49.534;6.378;2023-02-28T08:36:19;5.00;25.60
53776;DHT22;44276;49.534;6.378;2023-02-28T08:38:47;4.90;25.30
53776;DHT22;44276;49.534;6.378;2023-02-28T08:41:16;4.90;25.00
53776;DHT22;44276;49.534;6.378;2023-02-28T08:43:44;5.20;24.00
53776;DHT22;44276;49.534;6.378;2023-02-28T08:46:13;5.20;23.40
53776;DHT22;44276;49.534;6.378;2023-02-28T08:48:43;4.90;23.90
53776;DHT22;44276;49.534;6.378;2023-02-28T08:51:13;5.20;23.90
53776;DHT22;44276;49.534;6.378;2023-02-28T08:53:46;5.40;23.30
53776;DHT22;44276;49.534;6.378;2023-02-28T08:56:16;5.50;22.30
53776;DHT22;44276;49.534;6.378;2023-02-28T08:58:46;5.50;22.50
53776;DHT22;44276;49.534;6.378;2023-02-28T09:01:17;5.60;22.40
53776;DHT22;44276;49.534;6.378;2023-02-28T09:03:48;6.00;21.70
53776;DHT22;44276;49.534;6.378;2023-02-28T09:06:18;6.00;21.10
53776;DHT22;44276;49.534;6.378;2023-02-28T09:08:50;5.90;21.20
53776;DHT22;44276;49.534;6.378;2023-02-28T09:11:19;5.70;21.10
53776;DHT22;44276;49.534;6.378;2023-02-28T09:13:47;6.00;20.20
53776;DHT22;44276;49.534;6.378;2023-02-28T09:16:16;6.00;20.80
53776;DHT22;44276;49.534;6.378;2023-02-28T09:18:45;6.60;19.90
53776;DHT22;44276;49.534;6.378;2023-02-28T09:21:15;7.10;19.30
53776;DHT22;44276;49.534;6.378;2023-02-28T09:23:46;7.90;18.10
53776;DHT22;44276;49.534;6.378;2023-02-28T09:26:19;7.60;17.70
53776;DHT22;44276;49.534;6.378;2023-02-28T09:28:50;7.00;18.40
53776;DHT22;44276;49.534;6.378;2023-02-28T09:31:21;6.90;18.40
53776;DHT22;44276;49.534;6.378;2023-02-28T09:33:51;6.80;18.10
53776;DHT22;44276;49.534;6.378;2023-02-28T09:36:21;6.70;17.10
53776;DHT22;44276;49.534;6.378;2023-02-28T09:39:01;6.80;17.90
53776;DHT22;44276;49.534;6.378;2023-02-28T09:41:32;6.20;17.00
53776;DHT22;44276;49.534;6.378;2023-02-28T09:44:18;5.40;18.50
53776;DHT22;44276;49.534;6.378;2023-02-28T09:46:54;5.50;18.70
53776;DHT22;44276;49.534;6.378;2023-02-28T09:49:33;5.70;18.20
53776;DHT22;44276;49.534;6.378;2023-02-28T09:52:11;5.90;18.00
53776;DHT22;44276;49.534;6.378;2023-02-28T09:54:44;6.20;18.00
53776;DHT22;44276;49.534;6.378;2023-02-28T09:57:19;5.60;17.90
53776;DHT22;44276;49.534;6.378;2023-02-28T10:00:10;4.50;19.60
53776;DHT22;44276;49.534;6.378;2023-02-28T10:02:58;4.20;20.40
53776;DHT22;44276;49.534;6.378;2023-02-28T10:05:37;4.70;19.90
53776;DHT22;44276;49.534;6.378;2023-02-28T10:08:13;6.00;18.00
53776;DHT22;44276;49.534;6.378;2023-02-28T10:10:48;6.10;18.10
53776;DHT22;44276;49.534;6.378;2023-02-28T10:13:23;5.60;18.60
53776;DHT22;44276;49.534;6.378;2023-02-28T10:15:59;5.40;18.50
53776;DHT22;44276;49.534;6.378;2023-02-28T10:18:40;5.70;18.60
53776;DHT22;44276;49.534;6.378;2023-02-28T10:21:20;6.70;17.60
53776;DHT22;44276;49.534;6.378;2023-02-28T10:24:01;7.30;16.20
53776;DHT22;44276;49.534;6.378;2023-02-28T10:26:33;6.00;17.50
53776;DHT22;44276;49.534;6.378;2023-02-28T10:29:01;5.70;18.00
53776;DHT22;44276;49.534;6.378;2023-02-28T10:31:29;7.00;17.50
53776;DHT22;44276;49.534;6.378;2023-02-28T10:33:58;6.80;16.50
53776;DHT22;44276;49.534;6.378;2023-02-28T10:36:26;6.50;17.00
53776;DHT22;44276;49.534;6.378;2023-02-28T10:38:55;6.00;17.50
53776;DHT22;44276;49.534;6.378;2023-02-28T10:41:28;5.60;18.90
53776;DHT22;44276;49.534;6.378;2023-02-28T10:44:19;5.70;18.30
53776;DHT22;44276;49.534;6.378;2023-02-28T10:46:50;5.20;18.80
53776;DHT22;44276;49.534;6.378;2023-02-28T10:49:21;5.10;19.30
53776;DHT22;44276;49.534;6.378;2023-02-28T10:51:53;5.60;19.00
53776;DHT22;44276;49.534;6.378;2023-02-28T10:54:27;5.90;18.10
53776;DHT22;44276;49.534;6.378;2023-02-28T10:57:15;6.10;18.00
53776;DHT22;44276;49.534;6.378;2023-02-28T10:59:50;5.70;18.80
53776;DHT22;44276;49.534;6.378;2023-02-28T11:02:31;5.80;19.00
53776;DHT22;44276;49.534;6.378;2023-02-28T11:05:02;7.00;17.00
53776;DHT22;44276;49.534;6.378;2023-02-28T11:07:52;8.10;15.40
53776;DHT22;44276;49.534;6.378;2023-02-28T11:10:24;8.50;14.40
53776;DHT22;44276;49.534;6.378;2023-02-28T11:12:56;8.30;14.50
53776;DHT22;44276;49.534;6.378;2023-02-28T11:15:29;8.90;14.40
53776;DHT22;44276;49.534;6.378;2023-02-28T11:18:00;8.00;15.00
53776;DHT22;44276;49.534;6.378;2023-02-28T11:20:48;8.20;15.60
53776;DHT22;44276;49.534;6.378;2023-02-28T11:23:19;8.50;14.40
53776;DHT22;44276;49.534;6.378;2023-02-28T11:25:50;7.80;15.60
53776;DHT22;44276;49.534;6.378;2023-02-28T11:28:26;7.40;15.80
53776;DHT22;44276;49.534;6.378;2023-02-28T11:33:50;6.00;16.60
53776;DHT22;44276;49.534;6.378;2023-02-28T11:36:21;5.50;16.60
53776;DHT22;44276;49.534;6.378;2023-02-28T11:38:52;5.40;16.30
53776;DHT22;44276;49.534;6.378;2023-02-28T11:41:46;5.30;16.70
53776;DHT22;44276;49.534;6.378;2023-02-28T11:44:42;5.70;16.50
53776;DHT22;44276;49.534;6.378;2023-02-28T11:47:32;6.00;15.70
53776;DHT22;44276;49.534;6.378;2023-02-28T11:50:20;6.60;15.80
53776;DHT22;44276;49.534;6.378;2023-02-28T11:53:00;6.80;14.20
53776;DHT22;44276;49.534;6.378;2023-02-28T11:55:35;6.50;14.40
53776;DHT22;44276;49.534;6.378;2023-02-28T11:58:23;6.50;14.60
53776;DHT22;44276;49.534;6.378;2023-02-28T12:01:13;6.80;14.00
53776;DHT22;44276;49.534;6.378;2023-02-28T12:04:00;6.60;14.30
53776;DHT22;44276;49.534;6.378;2023-02-28T12:06:44;7.20;14.70
53776;DHT22;44276;49.534;6.378;2023-02-28T12:09:38;7.30;13.20
53776;DHT22;44276;49.534;6.378;2023-02-28T12:12:22;7.50;13.70
53776;DHT22;44276;49.534;6.378;2023-02-28T12:15:13;7.30;13.00
53776;DHT22;44276;49.534;6.378;2023-02-28T12:18:00;6.40;13.70
53776;DHT22;44276;49.534;6.378;2023-02-28T12:20:42;6.10;15.00
53776;DHT22;44276;49.534;6.378;2023-02-28T12:23:25;6.20;15.00
53776;DHT22;44276;49.534;6.378;2023-02-28T12:26:16;5.90;14.10
53776;DHT22;44276;49.534;6.378;2023-02-28T12:28:57;5.50;14.80
53776;DHT22;44276;49.534;6.378;2023-02-28T12:31:36;5.80;14.30
53776;DHT22;44276;49.534;6.378;2023-02-28T12:34:09;5.70;15.10
53776;DHT22;44276;49.534;6.378;2023-02-28T12:36:44;5.70;15.50
53776;DHT22;44276;49.534;6.378;2023-02-28T12:39:18;5.70;15.40
53776;DHT22;44276;49.534;6.378;2023-02-28T12:41:54;5.60;15.20
53776;DHT22;44276;49.534;6.378;2023-02-28T12:44:32;5.60;14.80
53776;DHT22;44276;49.534;6.378;2023-02-28T12:47:05;5.90;14.40
53776;DHT22;44276;49.534;6.378;2023-02-28T12:49:45;5.90;14.20
53776;DHT22;44276;49.534;6.378;2023-02-28T12:52:23;5.90;14.90
53776;DHT22;44276;49.534;6.378;2023-02-28T12:55:03;5.70;14.80
53776;DHT22;44276;49.534;6.378;2023-02-28T12:57:46;5.80;15.00
53776;DHT22;44276;49.534;6.378;2023-02-28T13:00:23;5.60;15.90
53776;DHT22;44276;49.534;6.378;2023-02-28T13:03:12;5.80;15.40
53776;DHT22;44276;49.534;6.378;2023-02-28T13:06:17;6.30;14.90
53776;DHT22;44276;49.534;6.378;2023-02-28T13:09:08;6.40;15.10
53776;DHT22;44276;49.534;6.378;2023-02-28T13:11:41;6.30;15.50
53776;DHT22;44276;49.534;6.378;2023-02-28T13:14:23;6.20;14.60
53776;DHT22;44276;49.534;6.378;2023-02-28T13:16:57;6.00;14.90
53776;DHT22;44276;49.534;6.378;2023-02-28T13:19:29;6.20;15.10
53776;DHT22;44276;49.534;6.378;2023-02-28T13:21:59;6.30;14.70
53776;DHT22;44276;49.534;6.378;2023-02-28T13:24:54;6.60;14.20
53776;DHT22;44276;49.534;6.378;2023-02-28T13:27:35;6.40;13.40
53776;DHT22;44276;49.534;6.378;2023-02-28T13:33:34;6.30;13.70
53776;DHT22;44276;49.534;6.378;2023-02-28T13:36:11;6.20;14.00
53776;DHT22;44276;49.534;6.378;2023-02-28T13:38:52;6.30;14.10
53776;DHT22;44276;49.534;6.378;2023-02-28T13:41:45;6.50;14.70
53776;DHT22;44276;49.534;6.378;2023-02-28T13:44:17;6.70;13.90
53776;DHT22;44276;49.534;6.378;2023-02-28T13:47:24;7.00;14.00
53776;DHT22;44276;49.534;6.378;2023-02-28T13:50:15;6.70;13.20
53776;DHT22;44276;49.534;6.378;2023-02-28T13:53:04;6.10;13.90
53776;DHT22;44276;49.534;6.378;2023-02-28T13:55:53;5.90;15.20
53776;DHT22;44276;49.534;6.378;2023-02-28T13:58:41;5.70;15.00
53776;DHT22;44276;49.534;6.378;2023-02-28T14:01:29;5.70;15.60
53776;DHT22;44276;49.534;6.378;2023-02-28T14:04:38;5.80;15.00
53776;DHT22;44276;49.534;6.378;2023-02-28T14:07:19;5.70;14.70
53776;DHT22;44276;49.534;6.378;2023-02-28T14:09:56;6.30;14.60
53776;DHT22;44276;49.534;6.378;2023-02-28T14:13:12;6.60;14.40
53776;DHT22;44276;49.534;6.378;2023-02-28T14:16:06;7.30;14.80
53776;DHT22;44276;49.534;6.378;2023-02-28T14:18:37;7.30;13.30
53776;DHT22;44276;49.534;6.378;2023-02-28T14:21:12;6.90;13.00
53776;DHT22;44276;49.534;6.378;2023-02-28T14:24:02;6.50;14.20
53776;DHT22;44276;49.534;6.378;2023-02-28T14:26:58;7.10;14.10
53776;DHT22;44276;49.534;6.378;2023-02-28T14:29:44;7.40;13.40
53776;DHT22;44276;49.534;6.378;2023-02-28T14:32:43;7.70;13.20
53776;DHT22;44276;49.534;6.378;2023-02-28T14:35:26;8.00;13.30
53776;DHT22;44276;49.534;6.378;2023-02-28T14:38:14;7.80;13.80
53776;DHT22;44276;49.534;6.378;2023-02-28T14:40:49;7.70;13.40
53776;DHT22;44276;49.534;6.378;2023-02-28T14:43:23;7.20;13.30
53776;DHT22;44276;49.534;6.378;2023-02-28T14:45:55;6.60;15.70
53776;DHT22;44276;49.534;6.378;2023-02-28T14:48:27;6.40;14.90
53776;DHT22;44276;49.534;6.378;2023-02-28T14:50:57;6.00;16.40
53776;DHT22;44276;49.534;6.378;2023-02-28T14:53:29;6.20;17.00
53776;DHT22;44276;49.534;6.378;2023-02-28T14:56:03;6.70;15.70
53776;DHT22;44276;49.534;6.378;2023-02-28T14:58:33;7.00;14.80
53776;DHT22;44276;49.534;6.378;2023-02-28T15:01:03;7.30;14.60
53776;DHT22;44276;49.534;6.378;2023-02-28T15:03:34;7.20;14.50
53776;DHT22;44276;49.534;6.378;2023-02-28T15:06:06;7.10;14.90
53776;DHT22;44276;49.534;6.378;2023-02-28T15:08:40;7.10;14.10
53776;DHT22;44276;49.534;6.378;2023-02-28T15:11:13;7.00;14.80
53776;DHT22;44276;49.534;6.378;2023-02-28T15:13:47;7.10;14.50
53776;DHT22;44276;49.534;6.378;2023-02-28T15:16:21;7.40;14.20
53776;DHT22;44276;49.534;6.378;2023-02-28T15:18:54;7.00;14.20
53776;DHT22;44276;49.534;6.378;2023-02-28T15:21:29;6.30;14.70
53776;DHT22;44276;49.534;6.378;2023-02-28T15:24:03;6.40;15.30
53776;DHT22;44276;49.534;6.378;2023-02-28T15:26:38;6.40;15.30
53776;DHT22;44276;49.534;6.378;2023-02-28T15:29:13;5.90;16.10
53776;DHT22;44276;49.534;6.378;2023-02-28T15:31:45;5.60;16.20
53776;DHT22;44276;49.534;6.378;2023-02-28T15:34:34;5.30;17.10
53776;DHT22;44276;49.534;6.378;2023-02-28T15:37:28;5.70;17.20
53776;DHT22;44276;49.534;6.378;2023-02-28T15:40:13;6.20;15.50
53776;DHT22;44276;49.534;6.378;2023-02-28T15:42:58;6.40;16.20
53776;DHT22;44276;49.534;6.378;2023-02-28T15:45:36;6.70;15.20
53776;DHT22;44276;49.534;6.378;2023-02-28T15:48:16;6.50;14.70
53776;DHT22;44276;49.534;6.378;2023-02-28T15:50:50;6.40;16.20
53776;DHT22;44276;49.534;6.378;2023-02-28T15:53:24;6.70;15.80
53776;DHT22;44276;49.534;6.378;2023-02-28T15:55:57;6.40;14.50
53776;DHT22;44276;49.534;6.378;2023-02-28T15:58:29;6.30;15.40
53776;DHT22;44276;49.534;6.378;2023-02-28T16:01:05;6.30;16.00
53776;DHT22;44276;49.534;6.378;2023-02-28T16:03:43;6.30;15.80
53776;DHT22;44276;49.534;6.378;2023-02-28T16:06:33;6.20;15.80
53776;DHT22;44276;49.534;6.378;2023-02-28T16:09:05;6.20;15.80
53776;DHT22;44276;49.534;6.378;2023-02-28T16:11:39;6.20;15.50
53776;DHT22;44276;49.534;6.378;2023-02-28T16:14:15;6.00;15.80
53776;DHT22;44276;49.534;6.378;2023-02-28T16:16:48;6.00;16.30
53776;DHT22;44276;49.534;6.378;2023-02-28T16:19:18;6.10;16.30
53776;DHT22;44276;49.534;6.378;2023-02-28T16:21:49;6.00;15.80
53776;DHT22;44276;49.534;6.378;2023-02-28T16:24:17;5.90;16.20
53776;DHT22;44276;49.534;6.378;2023-02-28T16:26:47;5.70;16.30
53776;DHT22;44276;49.534;6.378;2023-02-28T16:29:23;5.50;16.90
53776;DHT22;44276;49.534;6.378;2023-02-28T16:31:54;5.40;16.70
53776;DHT22;44276;49.534;6.378;2023-02-28T16:34:23;5.40;17.30